sensor_id;sensor_type;location;lat;lon;timestamp;temperature;humidity
7445;DHT22;3764;48.126;11.594;2023-06-14T00:02:03;17.70;86.20
7445;DHT22;3764;48.126;11.594;2023-06-14T00:04:30;17.70;86.30
7445;DHT22;3764;48.126;11.594;2023-06-14T00:06:57;17.70;86.10
7445;DHT22;3764;48.126;11.594;2023-06-14T00:09:26;17.60;86.30
7445;DHT22;3764;48.126;11.594;2023-06-14T00:11:53;17.60;86.60
7445;DHT22;3764;48.126;11.594;2023-06-14T00:14:20;17.60;87.10
7445;DHT22;3764;48.126;11.594;2023-06-14T00:16:48;17.50;86.90
7445;DHT22;3764;48.126;11.594;2023-06-14T00:19:15;17.50;87.10
7445;DHT22;3764;48.126;11.594;2023-06-14T00:21:42;17.50;87.50
7445;DHT22;3764;48.126;11.594;2023-06-14T00:24:09;17.50;87.50
7445;DHT22;3764;48.126;11.594;2023-06-14T00:26:37;17.50;87.80
7445;DHT22;3764;48.126;11.594;2023-06-14T00:29:04;17.40;88.10
7445;DHT22;3764;48.126;11.594;2023-06-14T00:31:31;17.40;88.50
7445;DHT22;3764;48.126;11.594;2023-06-14T00:33:58;17.30;87.70
7445;DHT22;3764;48.126;11.594;2023-06-14T00:36:26;17.30;88.20
7445;DHT22;3764;48.126;11.594;2023-06-14T00:38:53;17.30;88.60
7445;DHT22;3764;48.126;11.594;2023-06-14T00:41:20;17.20;88.50
7445;DHT22;3764;48.126;11.594;2023-06-14T00:43:48;17.20;88.90
7445;DHT22;3764;48.126;11.594;2023-06-14T00:46:15;17.10;89.10
7445;DHT22;3764;48.126;11.594;2023-06-14T00:48:43;17.10;89.30
7445;DHT22;3764;48.126;11.594;2023-06-14T00:51:10;17.10;89.00
7445;DHT22;3764;48.126;11.594;2023-06-14T00:53:37;17.10;89.50
7445;DHT22;3764;48.126;11.594;2023-06-14T00:56:05;17.10;89.50
7445;DHT22;3764;48.126;11.594;2023-06-14T00:58:32;17.10;89.70
7445;DHT22;3764;48.126;11.594;2023-06-14T01:01:01;17.00;89.70
7445;DHT22;3764;48.126;11.594;2023-06-14T01:03:29;16.90;90.10
7445;DHT22;3764;48.126;11.594;2023-06-14T01:06:05;16.80;90.10
7445;DHT22;3764;48.126;11.594;2023-06-14T01:08:43;16.80;90.10
7445;DHT22;3764;48.126;11.594;2023-06-14T01:11:18;16.80;90.30
7445;DHT22;3764;48.126;11.594;2023-06-14T01:13:50;16.80;90.30
7445;DHT22;3764;48.126;11.594;2023-06-14T01:16:20;16.80;90.40
7445;DHT22;3764;48.126;11.594;2023-06-14T01:18:47;16.80;90.50
7445;DHT22;3764;48.126;11.594;2023-06-14T01:21:22;16.80;90.50
7445;DHT22;3764;48.126;11.594;2023-06-14T01:23:51;16.70;90.50
7445;DHT22;3764;48.126;11.594;2023-06-14T01:26:20;16.70;90.70
7445;DHT22;3764;48.126;11.594;2023-06-14T01:28:49;16.70;90.70
7445;DHT22;3764;48.126;11.594;2023-06-14T01:31:20;16.70;90.70
7445;DHT22;3764;48.126;11.594;2023-06-14T01:33:48;16.60;90.80
7445;DHT22;3764;48.126;11.594;2023-06-14T01:36:17;16.60;91.00
7445;DHT22;3764;48.126;11.594;2023-06-14T01:38:46;16.50;90.90
7445;DHT22;3764;48.126;11.594;2023-06-14T01:41:16;16.50;91.00
7445;DHT22;3764;48.126;11.594;2023-06-14T01:43:44;16.50;91.30
7445;DHT22;3764;48.126;11.594;2023-06-14T01:46:13;16.40;91.10
7445;DHT22;3764;48.126;11.594;2023-06-14T01:48:42;16.40;91.20
7445;DHT22;3764;48.126;11.594;2023-06-14T01:51:09;16.40;91.10
7445;DHT22;3764;48.126;11.594;2023-06-14T01:53:36;16.40;91.10
7445;DHT22;3764;48.126;11.594;2023-06-14T01:56:03;16.30;91.30
7445;DHT22;3764;48.126;11.594;2023-06-14T01:58:32;16.30;91.10
7445;DHT22;3764;48.126;11.594;2023-06-14T02:00:59;16.30;91.20
7445;DHT22;3764;48.126;11.594;2023-06-14T02:03:27;16.30;91.10
7445;DHT22;3764;48.126;11.594;2023-06-14T02:05:55;16.20;91.20
7445;DHT22;3764;48.126;11.594;2023-06-14T02:08:23;16.20;91.00
7445;DHT22;3764;48.126;11.594;2023-06-14T02:10:50;16.20;91.20
7445;DHT22;3764;48.126;11.594;2023-06-14T02:13:17;16.20;91.30
7445;DHT22;3764;48.126;11.594;2023-06-14T02:15:45;16.20;91.40
7445;DHT22;3764;48.126;11.594;2023-06-14T02:18:16;16.10;91.30
7445;DHT22;3764;48.126;11.594;2023-06-14T02:20:43;16.00;91.40
7445;DHT22;3764;48.126;11.594;2023-06-14T02:23:11;16.10;91.70
7445;DHT22;3764;48.126;11.594;2023-06-14T02:25:38;16.00;91.30
7445;DHT22;3764;48.126;11.594;2023-06-14T02:28:06;15.90;91.40
7445;DHT22;3764;48.126;11.594;2023-06-14T02:30:33;15.80;91.50
7445;DHT22;3764;48.126;11.594;2023-06-14T02:33:01;15.80;91.30
7445;DHT22;3764;48.126;11.594;2023-06-14T02:35:30;15.80;91.50
7445;DHT22;3764;48.126;11.594;2023-06-14T02:37:57;15.80;91.40
7445;DHT22;3764;48.126;11.594;2023-06-14T02:40:24;15.80;91.30
7445;DHT22;3764;48.126;11.594;2023-06-14T02:42:51;15.80;91.30
7445;DHT22;3764;48.126;11.594;2023-06-14T02:45:18;15.80;91.40
7445;DHT22;3764;48.126;11.594;2023-06-14T02:47:46;15.80;91.40
7445;DHT22;3764;48.126;11.594;2023-06-14T02:50:15;15.80;91.50
7445;DHT22;3764;48.126;11.594;2023-06-14T02:52:43;15.80;91.60
7445;DHT22;3764;48.126;11.594;2023-06-14T02:55:11;15.80;91.60
7445;DHT22;3764;48.126;11.594;2023-06-14T02:57:38;15.70;91.70
7445;DHT22;3764;48.126;11.594;2023-06-14T03:00:06;15.70;91.40
7445;DHT22;3764;48.126;11.594;2023-06-14T03:02:35;15.70;91.60
7445;DHT22;3764;48.126;11.594;2023-06-14T03:05:03;15.70;91.50
7445;DHT22;3764;48.126;11.594;2023-06-14T03:07:33;15.60;91.50
7445;DHT22;3764;48.126;11.594;2023-06-14T03:10:00;15.60;91.70
7445;DHT22;3764;48.126;11.594;2023-06-14T03:12:28;15.60;91.80
7445;DHT22;3764;48.126;11.594;2023-06-14T03:14:56;15.60;91.90
7445;DHT22;3764;48.126;11.594;2023-06-14T03:17:27;15.60;92.00
7445;DHT22;3764;48.126;11.594;2023-06-14T03:19:55;15.60;92.00
7445;DHT22;3764;48.126;11.594;2023-06-14T03:22:22;15.60;92.10
7445;DHT22;3764;48.126;11.594;2023-06-14T03:24:52;15.50;92.10
7445;DHT22;3764;48.126;11.594;2023-06-14T03:27:19;15.50;92.40
7445;DHT22;3764;48.126;11.594;2023-06-14T03:29:47;15.50;92.20
7445;DHT22;3764;48.126;11.594;2023-06-14T03:32:14;15.50;92.20
7445;DHT22;3764;48.126;11.594;2023-06-14T03:34:41;15.50;92.30
7445;DHT22;3764;48.126;11.594;2023-06-14T03:37:08;15.50;92.50
7445;DHT22;3764;48.126;11.594;2023-06-14T03:39:35;15.50;92.90
7445;DHT22;3764;48.126;11.594;2023-06-14T03:42:05;15.50;92.40
7445;DHT22;3764;48.126;11.594;2023-06-14T03:44:32;15.50;92.70
7445;DHT22;3764;48.126;11.594;2023-06-14T03:46:59;15.50;92.70
7445;DHT22;3764;48.126;11.594;2023-06-14T03:49:27;15.50;92.90
7445;DHT22;3764;48.126;11.594;2023-06-14T03:51:54;15.40;92.60
7445;DHT22;3764;48.126;11.594;2023-06-14T03:54:21;15.40;92.70
7445;DHT22;3764;48.126;11.594;2023-06-14T03:56:48;15.30;92.50
7445;DHT22;3764;48.126;11.594;2023-06-14T03:59:17;15.20;92.60
7445;DHT22;3764;48.126;11.594;2023-06-14T04:01:44;15.20;92.70
7445;DHT22;3764;48.126;11.594;2023-06-14T04:04:12;15.20;92.50
7445;DHT22;3764;48.126;11.594;2023-06-14T04:06:42;15.20;92.60
7445;DHT22;3764;48.126;11.594;2023-06-14T04:09:09;15.20;92.80
7445;DHT22;3764;48.126;11.594;2023-06-14T04:11:36;15.20;92.90
7445;DHT22;3764;48.126;11.594;2023-06-14T04:14:05;15.30;92.90
7445;DHT22;3764;48.126;11.594;2023-06-14T04:16:33;15.30;93.00
7445;DHT22;3764;48.126;11.594;2023-06-14T04:19:01;15.30;93.10
7445;DHT22;3764;48.126;11.594;2023-06-14T04:21:28;15.30;93.30
7445;DHT22;3764;48.126;11.594;2023-06-14T04:23:55;15.20;93.40
7445;DHT22;3764;48.126;11.594;2023-06-14T04:26:22;15.20;93.30
7445;DHT22;3764;48.126;11.594;2023-06-14T04:28:55;15.20;93.70
7445;DHT22;3764;48.126;11.594;2023-06-14T04:31:22;15.20;94.10
7445;DHT22;3764;48.126;11.594;2023-06-14T04:33:52;15.20;94.00
7445;DHT22;3764;48.126;11.594;2023-06-14T04:36:20;15.20;93.90
7445;DHT22;3764;48.126;11.594;2023-06-14T04:38:47;15.20;93.80
7445;DHT22;3764;48.126;11.594;2023-06-14T04:41:14;15.20;93.90
7445;DHT22;3764;48.126;11.594;2023-06-14T04:43:41;15.20;94.00
7445;DHT22;3764;48.126;11.594;2023-06-14T04:46:09;15.20;94.00
7445;DHT22;3764;48.126;11.594;2023-06-14T04:48:37;15.10;94.10
7445;DHT22;3764;48.126;11.594;2023-06-14T04:51:06;15.10;94.10
7445;DHT22;3764;48.126;11.594;2023-06-14T04:53:34;15.00;94.20
7445;DHT22;3764;48.126;11.594;2023-06-14T04:56:01;15.00;94.20
7445;DHT22;3764;48.126;11.594;2023-06-14T04:58:29;15.00;94.20
7445;DHT22;3764;48.126;11.594;2023-06-14T05:00:56;14.90;94.40
7445;DHT22;3764;48.126;11.594;2023-06-14T05:03:25;14.90;94.50
7445;DHT22;3764;48.126;11.594;2023-06-14T05:05:52;14.90;94.70
7445;DHT22;3764;48.126;11.594;2023-06-14T05:08:22;14.90;94.50
7445;DHT22;3764;48.126;11.594;2023-06-14T05:10:50;14.90;94.70
7445;DHT22;3764;48.126;11.594;2023-06-14T05:13:17;15.00;94.80
7445;DHT22;3764;48.126;11.594;2023-06-14T05:15:44;15.10;94.80
7445;DHT22;3764;48.126;11.594;2023-06-14T05:18:12;15.10;94.70
7445;DHT22;3764;48.126;11.594;2023-06-14T05:20:40;15.10;94.70
7445;DHT22;3764;48.126;11.594;2023-06-14T05:23:09;15.00;94.40
7445;DHT22;3764;48.126;11.594;2023-06-14T05:25:42;14.90;94.60
7445;DHT22;3764;48.126;11.594;2023-06-14T05:28:10;14.90;94.90
7445;DHT22;3764;48.126;11.594;2023-06-14T05:30:38;14.90;94.90
7445;DHT22;3764;48.126;11.594;2023-06-14T05:33:05;15.00;95.50
7445;DHT22;3764;48.126;11.594;2023-06-14T05:35:33;15.10;95.30
7445;DHT22;3764;48.126;11.594;2023-06-14T05:38:00;15.10;95.50
7445;DHT22;3764;48.126;11.594;2023-06-14T05:40:27;15.20;95.10
7445;DHT22;3764;48.126;11.594;2023-06-14T05:42:55;15.20;95.20
7445;DHT22;3764;48.126;11.594;2023-06-14T05:45:22;15.30;95.10
7445;DHT22;3764;48.126;11.594;2023-06-14T05:47:49;15.40;95.30
7445;DHT22;3764;48.126;11.594;2023-06-14T05:50:17;15.30;95.00
7445;DHT22;3764;48.126;11.594;2023-06-14T05:52:44;15.40;95.50
7445;DHT22;3764;48.126;11.594;2023-06-14T05:55:11;15.40;95.00
7445;DHT22;3764;48.126;11.594;2023-06-14T05:57:38;15.50;94.80
7445;DHT22;3764;48.126;11.594;2023-06-14T06:00:08;15.60;94.80
7445;DHT22;3764;48.126;11.594;2023-06-14T06:02:40;15.60;95.50
7445;DHT22;3764;48.126;11.594;2023-06-14T06:05:08;15.60;95.00
7445;DHT22;3764;48.126;11.594;2023-06-14T06:07:36;15.70;95.00
7445;DHT22;3764;48.126;11.594;2023-06-14T06:10:04;15.70;95.30
7445;DHT22;3764;48.126;11.594;2023-06-14T06:12:31;15.70;95.00
7445;DHT22;3764;48.126;11.594;2023-06-14T06:14:59;15.80;94.80
7445;DHT22;3764;48.126;11.594;2023-06-14T06:17:27;15.80;94.60
7445;DHT22;3764;48.126;11.594;2023-06-14T06:19:55;15.70;95.00
7445;DHT22;3764;48.126;11.594;2023-06-14T06:22:22;15.80;94.90
7445;DHT22;3764;48.126;11.594;2023-06-14T06:24:49;15.70;94.80
7445;DHT22;3764;48.126;11.594;2023-06-14T06:27:16;15.80;94.90
7445;DHT22;3764;48.126;11.594;2023-06-14T06:29:44;15.80;95.30
7445;DHT22;3764;48.126;11.594;2023-06-14T06:32:11;15.80;95.60
7445;DHT22;3764;48.126;11.594;2023-06-14T06:34:40;15.90;95.20
7445;DHT22;3764;48.126;11.594;2023-06-14T06:37:07;15.90;95.20
7445;DHT22;3764;48.126;11.594;2023-06-14T06:39:34;16.00;95.70
7445;DHT22;3764;48.126;11.594;2023-06-14T06:42:01;16.00;95.20
7445;DHT22;3764;48.126;11.594;2023-06-14T06:44:28;16.10;95.20
7445;DHT22;3764;48.126;11.594;2023-06-14T06:46:57;16.20;95.10
7445;DHT22;3764;48.126;11.594;2023-06-14T06:49:24;16.20;95.00
7445;DHT22;3764;48.126;11.594;2023-06-14T06:52:02;16.20;95.60
7445;DHT22;3764;48.126;11.594;2023-06-14T06:54:30;16.30;96.10
7445;DHT22;3764;48.126;11.594;2023-06-14T06:56:58;16.30;95.50
7445;DHT22;3764;48.126;11.594;2023-06-14T06:59:25;16.30;95.60
7445;DHT22;3764;48.126;11.594;2023-06-14T07:01:52;16.40;95.80
7445;DHT22;3764;48.126;11.594;2023-06-14T07:04:19;16.40;95.40
7445;DHT22;3764;48.126;11.594;2023-06-14T07:06:47;16.40;95.10
7445;DHT22;3764;48.126;11.594;2023-06-14T07:09:15;16.40;95.10
7445;DHT22;3764;48.126;11.594;2023-06-14T07:11:43;16.50;95.10
7445;DHT22;3764;48.126;11.594;2023-06-14T07:14:11;16.50;95.20
7445;DHT22;3764;48.126;11.594;2023-06-14T07:16:38;16.60;95.50
7445;DHT22;3764;48.126;11.594;2023-06-14T07:19:06;16.60;94.90
7445;DHT22;3764;48.126;11.594;2023-06-14T07:21:33;16.70;94.90
7445;DHT22;3764;48.126;11.594;2023-06-14T07:24:00;16.70;94.80
7445;DHT22;3764;48.126;11.594;2023-06-14T07:26:32;16.80;94.80
7445;DHT22;3764;48.126;11.594;2023-06-14T07:28:59;16.90;94.90
7445;DHT22;3764;48.126;11.594;2023-06-14T07:31:26;16.90;95.10
7445;DHT22;3764;48.126;11.594;2023-06-14T07:33:53;17.00;95.00
7445;DHT22;3764;48.126;11.594;2023-06-14T07:36:20;17.00;95.00
7445;DHT22;3764;48.126;11.594;2023-06-14T07:38:47;17.10;94.50
7445;DHT22;3764;48.126;11.594;2023-06-14T07:41:14;17.20;94.60
7445;DHT22;3764;48.126;11.594;2023-06-14T07:43:43;17.20;94.60
7445;DHT22;3764;48.126;11.594;2023-06-14T07:46:10;17.30;94.70
7445;DHT22;3764;48.126;11.594;2023-06-14T07:48:37;17.30;94.80
7445;DHT22;3764;48.126;11.594;2023-06-14T07:51:05;17.40;94.10
7445;DHT22;3764;48.126;11.594;2023-06-14T07:53:32;17.40;93.90
7445;DHT22;3764;48.126;11.594;2023-06-14T07:55:59;17.50;93.70
7445;DHT22;3764;48.126;11.594;2023-06-14T07:58:26;17.60;93.50
7445;DHT22;3764;48.126;11.594;2023-06-14T08:00:55;17.60;93.40
7445;DHT22;3764;48.126;11.594;2023-06-14T08:03:22;17.70;93.50
7445;DHT22;3764;48.126;11.594;2023-06-14T08:05:49;17.80;93.70
7445;DHT22;3764;48.126;11.594;2023-06-14T08:08:17;17.80;93.50
7445;DHT22;3764;48.126;11.594;2023-06-14T08:10:44;17.90;93.10
7445;DHT22;3764;48.126;11.594;2023-06-14T08:13:11;17.90;92.70
7445;DHT22;3764;48.126;11.594;2023-06-14T08:15:38;18.00;92.30
7445;DHT22;3764;48.126;11.594;2023-06-14T08:18:07;18.00;92.20
7445;DHT22;3764;48.126;11.594;2023-06-14T08:20:34;18.10;91.40
7445;DHT22;3764;48.126;11.594;2023-06-14T08:23:03;18.10;91.30
7445;DHT22;3764;48.126;11.594;2023-06-14T08:25:30;18.20;90.80
7445;DHT22;3764;48.126;11.594;2023-06-14T08:27:58;18.30;90.60
7445;DHT22;3764;48.126;11.594;2023-06-14T08:30:25;18.30;90.50
7445;DHT22;3764;48.126;11.594;2023-06-14T08:32:53;18.40;90.70
7445;DHT22;3764;48.126;11.594;2023-06-14T08:35:22;18.40;90.60
7445;DHT22;3764;48.126;11.594;2023-06-14T08:37:49;18.40;90.60
7445;DHT22;3764;48.126;11.594;2023-06-14T08:40:19;18.50;90.80
7445;DHT22;3764;48.126;11.594;2023-06-14T08:42:50;18.60;89.90
7445;DHT22;3764;48.126;11.594;2023-06-14T08:45:18;18.70;89.50
7445;DHT22;3764;48.126;11.594;2023-06-14T08:47:45;18.80;89.10
7445;DHT22;3764;48.126;11.594;2023-06-14T08:50:19;18.90;89.60
7445;DHT22;3764;48.126;11.594;2023-06-14T08:52:53;18.90;89.90
7445;DHT22;3764;48.126;11.594;2023-06-14T08:55:23;19.00;90.00
7445;DHT22;3764;48.126;11.594;2023-06-14T08:57:54;19.00;90.00
7445;DHT22;3764;48.126;11.594;2023-06-14T09:00:22;19.10;90.00
7445;DHT22;3764;48.126;11.594;2023-06-14T09:02:50;19.10;89.10
7445;DHT22;3764;48.126;11.594;2023-06-14T09:05:22;19.10;90.00
7445;DHT22;3764;48.126;11.594;2023-06-14T09:07:50;19.20;89.00
7445;DHT22;3764;48.126;11.594;2023-06-14T09:10:18;19.20;88.50
7445;DHT22;3764;48.126;11.594;2023-06-14T09:12:47;19.20;88.40
7445;DHT22;3764;48.126;11.594;2023-06-14T09:15:14;19.30;88.30
7445;DHT22;3764;48.126;11.594;2023-06-14T09:17:42;19.30;87.90
7445;DHT22;3764;48.126;11.594;2023-06-14T09:20:10;19.30;89.10
7445;DHT22;3764;48.126;11.594;2023-06-14T09:22:39;19.40;88.30
7445;DHT22;3764;48.126;11.594;2023-06-14T09:25:09;19.40;88.00
7445;DHT22;3764;48.126;11.594;2023-06-14T09:27:37;19.50;88.80
7445;DHT22;3764;48.126;11.594;2023-06-14T09:30:08;19.50;89.60
7445;DHT22;3764;48.126;11.594;2023-06-14T09:32:37;19.60;89.60
7445;DHT22;3764;48.126;11.594;2023-06-14T09:35:06;19.60;89.90
7445;DHT22;3764;48.126;11.594;2023-06-14T09:37:34;19.60;90.00
7445;DHT22;3764;48.126;11.594;2023-06-14T09:40:04;19.70;90.00
7445;DHT22;3764;48.126;11.594;2023-06-14T09:42:34;19.70;90.00
7445;DHT22;3764;48.126;11.594;2023-06-14T09:45:03;19.70;88.80
7445;DHT22;3764;48.126;11.594;2023-06-14T09:47:30;19.70;87.70
7445;DHT22;3764;48.126;11.594;2023-06-14T09:49:57;19.70;86.90
7445;DHT22;3764;48.126;11.594;2023-06-14T09:52:27;19.80;87.00
7445;DHT22;3764;48.126;11.594;2023-06-14T09:54:55;19.80;87.40
7445;DHT22;3764;48.126;11.594;2023-06-14T09:57:23;19.90;88.10
7445;DHT22;3764;48.126;11.594;2023-06-14T09:59:57;19.90;87.90
7445;DHT22;3764;48.126;11.594;2023-06-14T10:02:27;19.90;86.00
7445;DHT22;3764;48.126;11.594;2023-06-14T10:05:01;20.00;86.70
7445;DHT22;3764;48.126;11.594;2023-06-14T10:07:35;20.00;87.30
7445;DHT22;3764;48.126;11.594;2023-06-14T10:10:04;20.00;86.60
7445;DHT22;3764;48.126;11.594;2023-06-14T10:12:31;20.10;86.10
7445;DHT22;3764;48.126;11.594;2023-06-14T10:15:00;20.20;87.60
7445;DHT22;3764;48.126;11.594;2023-06-14T10:17:35;20.20;87.30
7445;DHT22;3764;48.126;11.594;2023-06-14T10:20:21;20.20;87.50
7445;DHT22;3764;48.126;11.594;2023-06-14T10:22:54;20.30;86.50
7445;DHT22;3764;48.126;11.594;2023-06-14T10:25:28;20.30;86.80
7445;DHT22;3764;48.126;11.594;2023-06-14T10:28:15;20.30;86.50
7445;DHT22;3764;48.126;11.594;2023-06-14T10:31:07;20.30;86.60
7445;DHT22;3764;48.126;11.594;2023-06-14T10:33:36;20.40;86.80
7445;DHT22;3764;48.126;11.594;2023-06-14T10:36:26;20.40;85.50
7445;DHT22;3764;48.126;11.594;2023-06-14T10:39:15;20.50;87.00
7445;DHT22;3764;48.126;11.594;2023-06-14T10:41:50;20.50;85.80
7445;DHT22;3764;48.126;11.594;2023-06-14T10:44:41;20.60;85.50
7445;DHT22;3764;48.126;11.594;2023-06-14T10:47:27;20.60;86.00
7445;DHT22;3764;48.126;11.594;2023-06-14T10:49:55;20.60;87.80
7445;DHT22;3764;48.126;11.594;2023-06-14T10:52:26;20.70;88.60
7445;DHT22;3764;48.126;11.594;2023-06-14T10:55:07;20.70;89.30
7445;DHT22;3764;48.126;11.594;2023-06-14T10:57:38;20.70;89.90
7445;DHT22;3764;48.126;11.594;2023-06-14T11:00:07;20.70;89.40
7445;DHT22;3764;48.126;11.594;2023-06-14T11:05:49;20.80;89.80
7445;DHT22;3764;48.126;11.594;2023-06-14T11:08:51;20.80;89.70
7445;DHT22;3764;48.126;11.594;2023-06-14T11:11:23;20.80;90.10
7445;DHT22;3764;48.126;11.594;2023-06-14T11:13:51;20.80;89.80
7445;DHT22;3764;48.126;11.594;2023-06-14T11:16:19;20.80;89.30
7445;DHT22;3764;48.126;11.594;2023-06-14T11:18:46;20.80;88.50
7445;DHT22;3764;48.126;11.594;2023-06-14T11:21:19;20.90;88.50
7445;DHT22;3764;48.126;11.594;2023-06-14T11:23:50;20.90;87.90
7445;DHT22;3764;48.126;11.594;2023-06-14T11:26:24;20.90;89.00
7445;DHT22;3764;48.126;11.594;2023-06-14T11:28:55;21.00;87.30
7445;DHT22;3764;48.126;11.594;2023-06-14T11:31:23;20.90;88.40
7445;DHT22;3764;48.126;11.594;2023-06-14T11:33:51;20.90;87.60
7445;DHT22;3764;48.126;11.594;2023-06-14T11:36:21;20.90;85.10
7445;DHT22;3764;48.126;11.594;2023-06-14T11:38:48;20.90;84.80
7445;DHT22;3764;48.126;11.594;2023-06-14T11:41:16;20.90;85.40
7445;DHT22;3764;48.126;11.594;2023-06-14T11:43:43;21.00;83.80
7445;DHT22;3764;48.126;11.594;2023-06-14T11:46:13;21.00;84.10
7445;DHT22;3764;48.126;11.594;2023-06-14T11:48:42;21.00;85.30
7445;DHT22;3764;48.126;11.594;2023-06-14T11:51:10;21.10;83.70
7445;DHT22;3764;48.126;11.594;2023-06-14T11:53:39;21.10;86.10
7445;DHT22;3764;48.126;11.594;2023-06-14T11:56:07;21.20;84.20
7445;DHT22;3764;48.126;11.594;2023-06-14T11:58:34;21.30;82.60
7445;DHT22;3764;48.126;11.594;2023-06-14T12:01:03;21.30;82.90
7445;DHT22;3764;48.126;11.594;2023-06-14T12:03:30;21.30;83.20
7445;DHT22;3764;48.126;11.594;2023-06-14T12:06:05;21.40;83.80
7445;DHT22;3764;48.126;11.594;2023-06-14T12:08:33;21.40;84.00
7445;DHT22;3764;48.126;11.594;2023-06-14T12:11:10;21.40;83.70
7445;DHT22;3764;48.126;11.594;2023-06-14T12:13:38;21.50;83.40
7445;DHT22;3764;48.126;11.594;2023-06-14T12:16:07;21.50;85.50
7445;DHT22;3764;48.126;11.594;2023-06-14T12:18:35;21.50;84.20
7445;DHT22;3764;48.126;11.594;2023-06-14T12:21:04;21.40;83.40
7445;DHT22;3764;48.126;11.594;2023-06-14T12:23:45;21.50;82.60
7445;DHT22;3764;48.126;11.594;2023-06-14T12:26:15;21.50;82.90
7445;DHT22;3764;48.126;11.594;2023-06-14T12:28:42;21.50;83.30
7445;DHT22;3764;48.126;11.594;2023-06-14T12:31:10;21.50;87.00
7445;DHT22;3764;48.126;11.594;2023-06-14T12:33:38;21.70;86.50
7445;DHT22;3764;48.126;11.594;2023-06-14T12:36:07;21.80;86.10
7445;DHT22;3764;48.126;11.594;2023-06-14T12:38:34;21.90;85.40
7445;DHT22;3764;48.126;11.594;2023-06-14T12:41:02;21.90;85.20
7445;DHT22;3764;48.126;11.594;2023-06-14T12:43:30;21.90;84.90
7445;DHT22;3764;48.126;11.594;2023-06-14T12:45:57;21.80;84.30
7445;DHT22;3764;48.126;11.594;2023-06-14T12:48:24;21.70;83.60
7445;DHT22;3764;48.126;11.594;2023-06-14T12:50:53;21.70;84.10
7445;DHT22;3764;48.126;11.594;2023-06-14T12:53:20;21.80;85.00
7445;DHT22;3764;48.126;11.594;2023-06-14T12:55:47;21.90;85.50
7445;DHT22;3764;48.126;11.594;2023-06-14T12:58:14;22.00;84.10
7445;DHT22;3764;48.126;11.594;2023-06-14T13:00:44;22.10;82.10
7445;DHT22;3764;48.126;11.594;2023-06-14T13:03:11;22.10;82.60
7445;DHT22;3764;48.126;11.594;2023-06-14T13:05:38;22.10;84.80
7445;DHT22;3764;48.126;11.594;2023-06-14T13:08:07;22.20;84.30
7445;DHT22;3764;48.126;11.594;2023-06-14T13:10:35;22.30;83.80
7445;DHT22;3764;48.126;11.594;2023-06-14T13:13:02;22.30;82.50
7445;DHT22;3764;48.126;11.594;2023-06-14T13:15:29;22.20;83.00
7445;DHT22;3764;48.126;11.594;2023-06-14T13:17:58;22.20;81.90
7445;DHT22;3764;48.126;11.594;2023-06-14T13:20:25;22.10;80.90
7445;DHT22;3764;48.126;11.594;2023-06-14T13:22:52;22.00;80.20
7445;DHT22;3764;48.126;11.594;2023-06-14T13:25:19;21.90;78.80
7445;DHT22;3764;48.126;11.594;2023-06-14T13:27:48;21.90;79.80
7445;DHT22;3764;48.126;11.594;2023-06-14T13:30:15;21.80;79.60
7445;DHT22;3764;48.126;11.594;2023-06-14T13:32:42;21.80;80.00
7445;DHT22;3764;48.126;11.594;2023-06-14T13:35:10;21.80;79.90
7445;DHT22;3764;48.126;11.594;2023-06-14T13:37:38;21.80;81.00
7445;DHT22;3764;48.126;11.594;2023-06-14T13:40:07;21.90;81.60
7445;DHT22;3764;48.126;11.594;2023-06-14T13:42:34;21.90;81.50
7445;DHT22;3764;48.126;11.594;2023-06-14T13:45:01;21.90;81.30
7445;DHT22;3764;48.126;11.594;2023-06-14T13:47:29;21.90;81.20
7445;DHT22;3764;48.126;11.594;2023-06-14T13:49:56;21.90;79.70
7445;DHT22;3764;48.126;11.594;2023-06-14T13:52:25;21.90;77.60
7445;DHT22;3764;48.126;11.594;2023-06-14T13:54:52;22.00;77.80
7445;DHT22;3764;48.126;11.594;2023-06-14T13:57:20;21.90;77.80
7445;DHT22;3764;48.126;11.594;2023-06-14T13:59:47;21.90;77.20
7445;DHT22;3764;48.126;11.594;2023-06-14T14:02:14;21.90;77.00
7445;DHT22;3764;48.126;11.594;2023-06-14T14:04:41;21.90;77.60
7445;DHT22;3764;48.126;11.594;2023-06-14T14:07:08;21.90;76.90
7445;DHT22;3764;48.126;11.594;2023-06-14T14:09:37;21.90;77.60
7445;DHT22;3764;48.126;11.594;2023-06-14T14:12:06;21.90;78.90
7445;DHT22;3764;48.126;11.594;2023-06-14T14:14:33;21.90;79.10
7445;DHT22;3764;48.126;11.594;2023-06-14T14:17:00;22.00;79.20
7445;DHT22;3764;48.126;11.594;2023-06-14T14:19:27;22.00;78.50
7445;DHT22;3764;48.126;11.594;2023-06-14T14:21:54;22.10;77.60
7445;DHT22;3764;48.126;11.594;2023-06-14T14:24:21;22.10;79.30
7445;DHT22;3764;48.126;11.594;2023-06-14T14:26:49;22.10;79.50
7445;DHT22;3764;48.126;11.594;2023-06-14T14:29:19;22.10;77.50
7445;DHT22;3764;48.126;11.594;2023-06-14T14:31:46;22.10;76.90
7445;DHT22;3764;48.126;11.594;2023-06-14T14:34:13;22.10;78.60
7445;DHT22;3764;48.126;11.594;2023-06-14T14:36:40;22.10;78.10
7445;DHT22;3764;48.126;11.594;2023-06-14T14:39:08;22.20;79.10
7445;DHT22;3764;48.126;11.594;2023-06-14T14:41:35;22.30;80.60
7445;DHT22;3764;48.126;11.594;2023-06-14T14:44:05;22.30;83.50
7445;DHT22;3764;48.126;11.594;2023-06-14T14:46:32;22.40;79.40
7445;DHT22;3764;48.126;11.594;2023-06-14T14:48:59;22.60;79.00
7445;DHT22;3764;48.126;11.594;2023-06-14T14:51:26;22.60;82.20
7445;DHT22;3764;48.126;11.594;2023-06-14T14:53:53;22.70;81.40
7445;DHT22;3764;48.126;11.594;2023-06-14T14:56:22;22.80;79.70
7445;DHT22;3764;48.126;11.594;2023-06-14T14:58:49;22.80;78.40
7445;DHT22;3764;48.126;11.594;2023-06-14T15:01:18;22.90;83.00
7445;DHT22;3764;48.126;11.594;2023-06-14T15:03:45;23.10;82.40
7445;DHT22;3764;48.126;11.594;2023-06-14T15:06:12;23.20;79.50
7445;DHT22;3764;48.126;11.594;2023-06-14T15:08:39;23.30;76.80
7445;DHT22;3764;48.126;11.594;2023-06-14T15:11:06;23.20;76.10
7445;DHT22;3764;48.126;11.594;2023-06-14T15:13:33;23.30;78.80
7445;DHT22;3764;48.126;11.594;2023-06-14T15:16:00;23.30;81.60
7445;DHT22;3764;48.126;11.594;2023-06-14T15:18:29;23.40;82.20
7445;DHT22;3764;48.126;11.594;2023-06-14T15:20:56;23.50;81.60
7445;DHT22;3764;48.126;11.594;2023-06-14T15:23:23;23.50;82.00
7445;DHT22;3764;48.126;11.594;2023-06-14T15:25:50;23.60;83.10
7445;DHT22;3764;48.126;11.594;2023-06-14T15:28:17;23.70;80.90
7445;DHT22;3764;48.126;11.594;2023-06-14T15:30:44;23.80;80.20
7445;DHT22;3764;48.126;11.594;2023-06-14T15:33:12;23.80;80.40
7445;DHT22;3764;48.126;11.594;2023-06-14T15:35:40;23.80;80.30
7445;DHT22;3764;48.126;11.594;2023-06-14T15:38:07;23.80;81.50
7445;DHT22;3764;48.126;11.594;2023-06-14T15:40:34;23.90;78.90
7445;DHT22;3764;48.126;11.594;2023-06-14T15:43:01;23.90;77.60
7445;DHT22;3764;48.126;11.594;2023-06-14T15:45:29;23.80;78.10
7445;DHT22;3764;48.126;11.594;2023-06-14T15:47:57;23.80;79.30
7445;DHT22;3764;48.126;11.594;2023-06-14T15:50:25;23.80;80.70
7445;DHT22;3764;48.126;11.594;2023-06-14T15:52:54;23.90;82.10
7445;DHT22;3764;48.126;11.594;2023-06-14T15:55:21;24.00;81.20
7445;DHT22;3764;48.126;11.594;2023-06-14T15:57:48;24.10;82.90